Time;durP1;ratioP1;P1;durP2;ratioP2;P2;SDS_P1;SDS_P2;PMS_P1;PMS_P2;Temp;Humidity;BMP_temperature;BMP_pressure;BME280_temperature;BME280_humidity;BME280_pressure;Samples;Min_cycle;Max_cycle;Signal;HPM_P1;HPM_P2
2023/06/29 00:02:13;;;;;;;18.20;14.60;;;;;;;;;;5066165;28;42834;-22
2023/06/29 00:04:41;;;;;;;18.75;13.73;;;;;;;;;;5065140;28;44061;-23
2023/06/29 00:07:09;;;;;;;24.60;15.57;;;;;;;;;;5066242;28;40984;-22
2023/06/29 00:09:37;;;;;;;20.75;15.48;;;;;;;;;;5065164;28;42370;-22
2023/06/29 00:12:07;;;;;;;20.15;15.57;;;;;;;;;;5066372;28;44499;-22
2023/06/29 00:14:35;;;;;;;22.63;16.38;;;;;;;;;;5064878;28;42881;-22
2023/06/29 00:17:03;;;;;;;19.42;15.55;;;;;;;;;;5065436;28;43416;-22
2023/06/29 00:19:31;;;;;;;20.08;14.82;;;;;;;;;;5065296;28;40833;-22
2023/06/29 00:21:59;;;;;;;24.52;14.77;;;;;;;;;;5065785;28;42581;-22
2023/06/29 00:24:29;;;;;;;21.10;13.93;;;;;;;;;;5064660;28;43568;-22
2023/06/29 00:26:56;;;;;;;16.77;13.38;;;;;;;;;;5066006;28;40988;-22
2023/06/29 00:29:28;;;;;;;21.50;13.93;;;;;;;;;;5076383;28;41515;-22
2023/06/29 00:31:57;;;;;;;21.30;14.95;;;;;;;;;;5065466;28;43011;-22
2023/06/29 00:34:25;;;;;;;16.27;13.73;;;;;;;;;;5064862;28;41137;-22
2023/06/29 00:36:53;;;;;;;19.80;15.38;;;;;;;;;;5066068;28;43519;-22
2023/06/29 00:39:22;;;;;;;29.33;14.98;;;;;;;;;;5064654;28;40500;-22
2023/06/29 00:41:53;;;;;;;21.20;14.55;;;;;;;;;;5065829;28;42810;-22
2023/06/29 00:44:21;;;;;;;19.58;15.57;;;;;;;;;;5064413;28;44337;-22
2023/06/29 00:46:51;;;;;;;19.80;14.85;;;;;;;;;;5064374;28;42631;-22
2023/06/29 00:49:20;;;;;;;20.42;15.30;;;;;;;;;;5055995;28;42903;-22
2023/06/29 00:51:48;;;;;;;19.50;14.55;;;;;;;;;;5064906;28;43901;-22
2023/06/29 00:54:16;;;;;;;18.75;15.50;;;;;;;;;;5065953;28;40032;-22
2023/06/29 00:56:44;;;;;;;23.30;15.15;;;;;;;;;;5063641;28;43021;-22
2023/06/29 00:59:14;;;;;;;24.23;16.02;;;;;;;;;;5062822;28;40568;-22
2023/06/29 01:01:43;;;;;;;22.08;15.85;;;;;;;;;;5065567;28;42764;-22
2023/06/29 01:04:17;;;;;;;24.92;15.60;;;;;;;;;;5063964;28;43874;-23
2023/06/29 01:06:46;;;;;;;21.08;15.38;;;;;;;;;;5063265;28;40306;-23
2023/06/29 01:09:14;;;;;;;16.30;13.85;;;;;;;;;;5065336;28;43406;-23
2023/06/29 01:11:42;;;;;;;21.65;15.52;;;;;;;;;;5065140;28;43043;-23
2023/06/29 01:14:11;;;;;;;18.50;15.18;;;;;;;;;;5064547;28;40280;-23
2023/06/29 01:16:39;;;;;;;22.40;16.35;;;;;;;;;;5065298;28;42908;-23
2023/06/29 01:19:07;;;;;;;21.92;14.45;;;;;;;;;;5065631;28;43796;-22
2023/06/29 01:21:39;;;;;;;24.92;15.18;;;;;;;;;;5062407;28;41691;-23
2023/06/29 01:24:07;;;;;;;23.63;16.52;;;;;;;;;;5065048;28;44284;-25
2023/06/29 01:26:38;;;;;;;18.70;15.50;;;;;;;;;;5079648;28;40211;-25
2023/06/29 01:29:06;;;;;;;19.23;15.63;;;;;;;;;;5060981;28;41801;-27
2023/06/29 01:31:34;;;;;;;19.17;15.63;;;;;;;;;;5064227;28;42964;-24
2023/06/29 01:34:02;;;;;;;20.10;15.65;;;;;;;;;;5062835;28;39277;-26
2023/06/29 01:36:31;;;;;;;24.00;17.50;;;;;;;;;;5065271;28;42218;-28
2023/06/29 01:39:01;;;;;;;20.95;17.02;;;;;;;;;;5064452;28;43620;-29
2023/06/29 01:41:29;;;;;;;21.98;16.30;;;;;;;;;;5063202;28;42479;-25
2023/06/29 01:44:00;;;;;;;24.73;16.95;;;;;;;;;;5062499;28;41412;-26
2023/06/29 01:46:28;;;;;;;23.25;16.05;;;;;;;;;;5062070;28;40750;-26
2023/06/29 01:48:56;;;;;;;22.73;16.52;;;;;;;;;;5066050;28;41987;-27
2023/06/29 01:51:24;;;;;;;24.95;16.38;;;;;;;;;;5067638;28;43366;-29
2023/06/29 01:53:54;;;;;;;22.65;16.80;;;;;;;;;;5068218;28;40065;-26
2023/06/29 01:56:22;;;;;;;24.02;17.30;;;;;;;;;;5067504;28;43803;-27
2023/06/29 01:58:50;;;;;;;23.67;17.15;;;;;;;;;;5065143;28;41588;-26
2023/06/29 02:01:19;;;;;;;22.33;17.00;;;;;;;;;;5068348;28;41498;-22
2023/06/29 02:03:47;;;;;;;20.73;15.75;;;;;;;;;;5067890;28;43676;-23
2023/06/29 02:06:16;;;;;;;20.23;15.82;;;;;;;;;;5067766;28;40399;-25
2023/06/29 02:08:44;;;;;;;23.38;17.63;;;;;;;;;;5065395;28;41139;-24
2023/06/29 02:11:12;;;;;;;24.52;17.20;;;;;;;;;;5067492;28;43444;-25
2023/06/29 02:13:40;;;;;;;22.95;17.23;;;;;;;;;;5067964;28;41191;-24
2023/06/29 02:16:08;;;;;;;19.17;16.15;;;;;;;;;;5065965;28;42149;-24
2023/06/29 02:18:38;;;;;;;21.58;16.83;;;;;;;;;;5065770;28;42056;-25
2023/06/29 02:21:07;;;;;;;18.42;15.32;;;;;;;;;;5068013;28;41064;-26
2023/06/29 02:23:35;;;;;;;19.27;14.60;;;;;;;;;;5066717;28;43253;-23
2023/06/29 02:26:03;;;;;;;20.02;16.20;;;;;;;;;;5068186;28;42339;-25
2023/06/29 02:28:36;;;;;;;18.85;15.43;;;;;;;;;;5065293;28;41303;-32
2023/06/29 02:31:04;;;;;;;18.50;15.00;;;;;;;;;;5067439;28;44289;-24
2023/06/29 02:33:32;;;;;;;23.27;15.88;;;;;;;;;;5065417;28;41167;-26
2023/06/29 02:36:01;;;;;;;22.63;16.30;;;;;;;;;;5067940;28;43045;-29
2023/06/29 02:38:29;;;;;;;22.10;17.88;;;;;;;;;;5066234;28;43049;-26
2023/06/29 02:40:57;;;;;;;23.10;16.98;;;;;;;;;;5067780;28;40575;-25
2023/06/29 02:43:25;;;;;;;19.52;16.02;;;;;;;;;;5067122;28;43526;-24
2023/06/29 02:45:54;;;;;;;24.35;17.00;;;;;;;;;;5064874;28;41542;-25
2023/06/29 02:48:25;;;;;;;24.15;17.55;;;;;;;;;;5065564;28;20225;-25
2023/06/29 02:50:54;;;;;;;21.90;18.20;;;;;;;;;;5067663;28;43648;-26
2023/06/29 02:53:23;;;;;;;23.40;17.70;;;;;;;;;;5064095;28;40420;-24
2023/06/29 02:55:51;;;;;;;22.02;17.55;;;;;;;;;;5067853;28;43206;-25
2023/06/29 02:58:19;;;;;;;21.75;17.65;;;;;;;;;;5065414;28;44069;-26
2023/06/29 03:00:49;;;;;;;21.45;17.10;;;;;;;;;;5064986;28;39357;-26
2023/06/29 03:03:17;;;;;;;21.90;17.58;;;;;;;;;;5064920;28;42433;-26
2023/06/29 03:05:45;;;;;;;17.55;15.15;;;;;;;;;;5066115;28;44472;-23
2023/06/29 03:08:13;;;;;;;20.48;17.05;;;;;;;;;;5066411;28;39540;-24
2023/06/29 03:10:42;;;;;;;24.58;17.10;;;;;;;;;;5066323;28;43779;-26
2023/06/29 03:13:11;;;;;;;20.83;16.35;;;;;;;;;;5066337;28;40267;-24
2023/06/29 03:15:38;;;;;;;23.48;16.80;;;;;;;;;;5066730;28;42837;-23
2023/06/29 03:18:06;;;;;;;25.65;19.27;;;;;;;;;;5066950;28;43416;-25
2023/06/29 03:20:34;;;;;;;24.52;17.30;;;;;;;;;;5065858;28;40563;-28
2023/06/29 03:23:02;;;;;;;20.58;16.80;;;;;;;;;;5067595;28;42661;-24
2023/06/29 03:25:30;;;;;;;25.70;18.88;;;;;;;;;;5066598;28;43510;-28
2023/06/29 03:28:00;;;;;;;24.67;18.45;;;;;;;;;;5066633;28;40599;-24
2023/06/29 03:30:27;;;;;;;24.40;18.58;;;;;;;;;;5059490;28;43308;-24
2023/06/29 03:32:58;;;;;;;27.95;19.63;;;;;;;;;;5065429;28;40510;-25
2023/06/29 03:35:26;;;;;;;21.75;17.30;;;;;;;;;;5066071;28;42118;-24
2023/06/29 03:37:54;;;;;;;27.00;20.40;;;;;;;;;;5065960;28;44225;-25
2023/06/29 03:40:22;;;;;;;17.95;15.75;;;;;;;;;;5066175;28;41173;-25
2023/06/29 03:42:50;;;;;;;23.90;18.08;;;;;;;;;;5081131;28;42197;-26
2023/06/29 03:45:20;;;;;;;23.92;17.83;;;;;;;;;;5065806;28;43604;-26
2023/06/29 03:47:47;;;;;;;24.23;18.48;;;;;;;;;;5066266;28;40372;-24
2023/06/29 03:50:16;;;;;;;27.33;17.77;;;;;;;;;;5066753;28;43032;-24
2023/06/29 03:52:44;;;;;;;29.90;19.50;;;;;;;;;;5067166;28;40491;-24
2023/06/29 03:55:12;;;;;;;21.42;16.45;;;;;;;;;;5065781;28;42752;-24
2023/06/29 03:57:40;;;;;;;21.10;13.70;;;;;;;;;;5066170;28;43610;-27
2023/06/29 04:00:09;;;;;;;23.08;16.30;;;;;;;;;;5066448;28;40960;-25
2023/06/29 04:02:41;;;;;;;23.02;15.65;;;;;;;;;;5065331;28;43207;-25
2023/06/29 04:05:09;;;;;;;21.52;15.65;;;;;;;;;;5065427;28;43677;-25
2023/06/29 04:07:37;;;;;;;26.05;18.17;;;;;;;;;;5061065;28;38976;-27
2023/06/29 04:10:06;;;;;;;25.17;17.90;;;;;;;;;;5064859;28;42996;-26
2023/06/29 04:12:34;;;;;;;26.20;18.42;;;;;;;;;;5066230;28;43144;-32
2023/06/29 04:15:02;;;;;;;28.05;19.70;;;;;;;;;;5066593;28;43014;-26
2023/06/29 04:17:30;;;;;;;23.58;20.13;;;;;;;;;;5079876;28;42003;-25
2023/06/29 04:19:59;;;;;;;25.90;20.70;;;;;;;;;;5066678;28;40714;-26
2023/06/29 04:22:27;;;;;;;23.35;18.42;;;;;;;;;;5065541;28;42786;-24
2023/06/29 04:24:55;;;;;;;27.35;19.92;;;;;;;;;;5065605;28;43873;-24
2023/06/29 04:27:23;;;;;;;25.88;19.58;;;;;;;;;;5064977;28;41515;-26
2023/06/29 04:29:51;;;;;;;25.95;19.92;;;;;;;;;;5065152;28;42475;-25
2023/06/29 04:32:19;;;;;;;27.95;21.05;;;;;;;;;;5064951;28;43204;-26
2023/06/29 04:34:47;;;;;;;25.55;18.98;;;;;;;;;;5066769;28;40620;-24
2023/06/29 04:37:17;;;;;;;29.40;20.55;;;;;;;;;;5064913;28;44345;-25
2023/06/29 04:39:45;;;;;;;27.40;20.58;;;;;;;;;;5063975;28;41429;-25
2023/06/29 04:42:13;;;;;;;25.75;17.45;;;;;;;;;;5059788;28;43443;-25
2023/06/29 04:44:41;;;;;;;28.85;18.55;;;;;;;;;;5057113;28;44186;-25
2023/06/29 04:47:09;;;;;;;26.75;19.10;;;;;;;;;;5065560;28;41089;-27
2023/06/29 04:49:39;;;;;;;24.65;19.00;;;;;;;;;;5063368;28;43859;-27
2023/06/29 04:52:09;;;;;;;28.13;21.30;;;;;;;;;;5061601;28;44425;-27
2023/06/29 04:54:39;;;;;;;31.10;19.80;;;;;;;;;;5050473;28;41826;-25
2023/06/29 04:57:07;;;;;;;25.35;18.25;;;;;;;;;;5051156;28;42816;-26
2023/06/29 04:59:35;;;;;;;30.17;21.65;;;;;;;;;;5058500;28;40459;-25
2023/06/29 05:02:03;;;;;;;25.73;19.48;;;;;;;;;;5050963;28;42949;-29
2023/06/29 05:04:31;;;;;;;29.88;23.15;;;;;;;;;;5060959;28;43856;-31
2023/06/29 05:06:59;;;;;;;26.98;20.63;;;;;;;;;;5061291;28;40696;-26
2023/06/29 05:09:27;;;;;;;32.50;21.75;;;;;;;;;;5061931;28;42562;-27
2023/06/29 05:11:57;;;;;;;27.42;20.10;;;;;;;;;;5054044;28;43666;-24
2023/06/29 05:14:24;;;;;;;28.20;21.58;;;;;;;;;;5064746;28;40870;-27
2023/06/29 05:16:52;;;;;;;34.05;24.15;;;;;;;;;;5063716;28;43071;-27
2023/06/29 05:19:21;;;;;;;29.85;23.15;;;;;;;;;;5052101;28;43508;-25
2023/06/29 05:21:49;;;;;;;29.20;20.38;;;;;;;;;;5060313;28;42243;-24
2023/06/29 05:24:17;;;;;;;33.50;23.40;;;;;;;;;;5062238;28;43456;-28
2023/06/29 05:26:46;;;;;;;28.70;20.60;;;;;;;;;;5063979;28;41223;-25
2023/06/29 05:29:16;;;;;;;33.88;25.10;;;;;;;;;;5065259;28;42990;-27
2023/06/29 05:31:44;;;;;;;31.20;21.33;;;;;;;;;;5068634;28;43391;-26
2023/06/29 05:34:12;;;;;;;30.92;24.95;;;;;;;;;;5068273;28;41025;-26
2023/06/29 05:36:40;;;;;;;29.00;22.33;;;;;;;;;;5067757;28;43706;-27
2023/06/29 05:39:08;;;;;;;34.67;23.35;;;;;;;;;;5068467;28;43685;-25
2023/06/29 05:41:36;;;;;;;34.83;23.67;;;;;;;;;;5054324;28;40270;-24
2023/06/29 05:44:06;;;;;;;31.00;21.05;;;;;;;;;;5059395;28;45023;-25
2023/06/29 05:46:35;;;;;;;30.85;22.50;;;;;;;;;;5062197;28;40785;-24
2023/06/29 05:49:03;;;;;;;31.65;24.92;;;;;;;;;;5060630;28;43767;-24
2023/06/29 05:51:32;;;;;;;32.40;23.80;;;;;;;;;;5062241;28;44134;-25
2023/06/29 05:54:00;;;;;;;24.48;19.90;;;;;;;;;;5068794;28;40715;-33
2023/06/29 05:56:28;;;;;;;25.35;18.13;;;;;;;;;;5062070;28;42877;-25
2023/06/29 05:58:56;;;;;;;25.15;19.05;;;;;;;;;;5063517;28;43429;-25
2023/06/29 06:01:24;;;;;;;21.42;16.80;;;;;;;;;;5067320;28;40830;-24
2023/06/29 06:03:54;;;;;;;23.40;18.92;;;;;;;;;;5067523;28;44603;-24
2023/06/29 06:06:22;;;;;;;23.65;18.85;;;;;;;;;;5067455;28;40851;-24
2023/06/29 06:08:50;;;;;;;23.58;17.73;;;;;;;;;;5067267;28;42268;-24
2023/06/29 06:11:18;;;;;;;25.30;20.02;;;;;;;;;;5066998;28;43388;-26
2023/06/29 06:13:46;;;;;;;26.67;20.98;;;;;;;;;;5067358;28;40493;-26
2023/06/29 06:16:14;;;;;;;29.65;21.00;;;;;;;;;;5067331;28;42749;-24
2023/06/29 06:18:42;;;;;;;25.80;19.75;;;;;;;;;;5066885;28;45296;-25
2023/06/29 06:21:11;;;;;;;28.52;20.98;;;;;;;;;;5055597;28;40325;-25
2023/06/29 06:23:40;;;;;;;27.08;20.80;;;;;;;;;;5064596;28;41512;-27
2023/06/29 06:26:08;;;;;;;27.67;20.15;;;;;;;;;;5067069;28;40382;-23
2023/06/29 06:28:36;;;;;;;25.88;20.42;;;;;;;;;;5066697;28;43126;-28
2023/06/29 06:31:04;;;;;;;25.15;21.05;;;;;;;;;;5066663;28;43326;-24
2023/06/29 06:33:32;;;;;;;30.40;20.23;;;;;;;;;;5065720;28;41091;-24
2023/06/29 06:36:02;;;;;;;33.33;20.17;;;;;;;;;;5067117;28;43078;-26
2023/06/29 06:38:31;;;;;;;26.13;22.05;;;;;;;;;;5065941;28;44154;-28
2023/06/29 06:41:16;;;;;;;27.30;22.17;;;;;;;;;;5062078;28;40853;-33
2023/06/29 06:43:44;;;;;;;30.45;23.38;;;;;;;;;;5064132;28;42967;-26
2023/06/29 06:46:12;;;;;;;31.48;22.92;;;;;;;;;;5067046;28;43901;-26
2023/06/29 06:48:40;;;;;;;27.27;21.58;;;;;;;;;;5066972;28;42755;-27
2023/06/29 06:51:08;;;;;;;29.80;22.33;;;;;;;;;;5066842;28;43452;-28
2023/06/29 06:53:38;;;;;;;34.05;22.77;;;;;;;;;;5066180;28;41510;-26
2023/06/29 06:56:05;;;;;;;29.25;22.48;;;;;;;;;;5067021;28;43109;-24
2023/06/29 06:58:33;;;;;;;32.00;21.90;;;;;;;;;;5065838;28;44209;-24
2023/06/29 07:01:02;;;;;;;31.13;22.20;;;;;;;;;;5067237;28;40861;-26
2023/06/29 07:03:30;;;;;;;30.08;22.65;;;;;;;;;;5066172;28;42706;-26
2023/06/29 07:05:58;;;;;;;30.27;22.38;;;;;;;;;;5066624;28;43087;-24
2023/06/29 07:08:27;;;;;;;33.45;23.40;;;;;;;;;;5060385;28;41222;-25
2023/06/29 07:10:57;;;;;;;36.63;25.13;;;;;;;;;;5067248;28;42310;-24
2023/06/29 07:13:25;;;;;;;29.40;22.67;;;;;;;;;;5063902;28;39665;-23
2023/06/29 07:15:53;;;;;;;36.40;25.85;;;;;;;;;;5067358;28;43867;-24
2023/06/29 07:18:21;;;;;;;32.05;24.48;;;;;;;;;;5065895;28;43613;-27
2023/06/29 07:20:49;;;;;;;31.95;24.75;;;;;;;;;;5064924;28;40545;-24
2023/06/29 07:23:20;;;;;;;29.95;23.88;;;;;;;;;;5066296;28;44179;-23
2023/06/29 07:25:51;;;;;;;32.97;25.30;;;;;;;;;;5065291;28;44330;-24
2023/06/29 07:28:20;;;;;;;30.38;24.33;;;;;;;;;;5065626;28;40418;-26
2023/06/29 07:30:50;;;;;;;35.13;25.08;;;;;;;;;;5066704;28;43440;-25
2023/06/29 07:33:18;;;;;;;33.92;24.35;;;;;;;;;;5064901;28;40320;-25
2023/06/29 07:35:46;;;;;;;33.63;25.08;;;;;;;;;;5066976;28;43103;-26
2023/06/29 07:38:14;;;;;;;32.80;25.65;;;;;;;;;;5066311;28;43372;-24
2023/06/29 07:40:42;;;;;;;33.60;25.55;;;;;;;;;;5065635;28;41506;-26
2023/06/29 07:43:10;;;;;;;33.15;25.75;;;;;;;;;;5066061;28;43083;-34
2023/06/29 07:45:40;;;;;;;35.35;26.20;;;;;;;;;;5060606;28;44528;-25
2023/06/29 07:48:08;;;;;;;32.25;25.83;;;;;;;;;;5062390;28;41024;-23
2023/06/29 07:50:36;;;;;;;35.20;26.00;;;;;;;;;;5055113;28;43637;-26
2023/06/29 07:53:04;;;;;;;36.47;27.13;;;;;;;;;;5065396;28;33247;-26
2023/06/29 07:55:32;;;;;;;38.10;26.90;;;;;;;;;;5062308;28;43658;-23
2023/06/29 07:58:00;;;;;;;34.50;26.40;;;;;;;;;;5065509;28;43358;-28
2023/06/29 08:00:30;;;;;;;39.35;27.05;;;;;;;;;;5061009;28;39959;-26
2023/06/29 08:03:00;;;;;;;35.20;26.30;;;;;;;;;;5055020;28;42604;-25
2023/06/29 08:05:28;;;;;;;38.58;28.05;;;;;;;;;;5063537;28;43292;-26
2023/06/29 08:07:59;;;;;;;37.45;28.23;;;;;;;;;;5065338;28;41425;-24
2023/06/29 08:10:27;;;;;;;35.88;26.17;;;;;;;;;;5064412;28;43305;-24
2023/06/29 08:12:55;;;;;;;37.92;27.33;;;;;;;;;;5065419;28;44455;-24
2023/06/29 08:15:23;;;;;;;33.03;25.20;;;;;;;;;;5064298;28;41837;-24
2023/06/29 08:17:51;;;;;;;34.90;26.38;;;;;;;;;;5065947;28;44325;-26
2023/06/29 08:20:22;;;;;;;35.60;26.40;;;;;;;;;;5064252;28;40634;-25
2023/06/29 08:22:50;;;;;;;35.40;26.08;;;;;;;;;;5056488;28;42436;-28
2023/06/29 08:25:18;;;;;;;37.70;26.08;;;;;;;;;;5063843;28;43063;-24
2023/06/29 08:27:46;;;;;;;32.90;25.23;;;;;;;;;;5065323;28;40212;-23
2023/06/29 08:30:14;;;;;;;40.88;27.38;;;;;;;;;;5064753;28;42234;-23
2023/06/29 08:32:43;;;;;;;32.95;26.75;;;;;;;;;;5065077;28;42961;-25
2023/06/29 08:35:11;;;;;;;33.85;26.08;;;;;;;;;;5065128;28;40974;-31
2023/06/29 08:37:40;;;;;;;35.90;26.67;;;;;;;;;;5064187;28;43487;-26
2023/06/29 08:40:08;;;;;;;34.20;26.42;;;;;;;;;;5064178;28;40806;-26
2023/06/29 08:42:37;;;;;;;34.58;25.92;;;;;;;;;;5064323;28;42504;-26
2023/06/29 08:45:05;;;;;;;36.08;26.48;;;;;;;;;;5063680;28;44027;-25
2023/06/29 08:47:33;;;;;;;32.88;27.27;;;;;;;;;;5065087;28;40853;-25
2023/06/29 08:50:04;;;;;;;33.53;25.73;;;;;;;;;;5063980;28;42315;-24
2023/06/29 08:52:32;;;;;;;37.60;26.92;;;;;;;;;;5064207;28;43521;-23
2023/06/29 08:55:01;;;;;;;33.65;25.33;;;;;;;;;;5064195;28;40918;-26
2023/06/29 08:57:31;;;;;;;35.50;24.50;;;;;;;;;;5064157;28;42813;-24
2023/06/29 08:59:59;;;;;;;32.75;24.05;;;;;;;;;;5064399;28;40613;-25
2023/06/29 09:02:28;;;;;;;32.55;23.55;;;;;;;;;;5064871;28;42687;-24
2023/06/29 09:04:56;;;;;;;31.08;21.80;;;;;;;;;;5063653;28;44553;-24
2023/06/29 09:07:24;;;;;;;27.30;20.92;;;;;;;;;;5064693;28;41123;-23
2023/06/29 09:09:53;;;;;;;29.52;21.35;;;;;;;;;;5064838;28;42705;-25
2023/06/29 09:12:22;;;;;;;31.08;22.67;;;;;;;;;;5063680;28;44623;-27
2023/06/29 09:14:50;;;;;;;28.77;21.55;;;;;;;;;;5062019;28;39662;-24
2023/06/29 09:17:21;;;;;;;28.52;20.55;;;;;;;;;;5062505;28;42952;-25
2023/06/29 09:19:50;;;;;;;27.38;20.75;;;;;;;;;;5060337;28;44210;-26
2023/06/29 09:22:18;;;;;;;26.58;20.05;;;;;;;;;;5064070;28;42721;-28
2023/06/29 09:24:47;;;;;;;33.42;20.50;;;;;;;;;;5064218;28;43661;-25
2023/06/29 09:27:33;;;;;;;27.65;21.10;;;;;;;;;;5060631;28;41321;-22
2023/06/29 09:30:01;;;;;;;27.75;20.27;;;;;;;;;;5063923;28;42716;-22
2023/06/29 09:32:29;;;;;;;26.73;20.42;;;;;;;;;;5061999;28;44310;-22
2023/06/29 09:35:04;;;;;;;26.10;20.45;;;;;;;;;;5063342;28;41721;-22
2023/06/29 09:37:33;;;;;;;27.92;20.75;;;;;;;;;;5058740;28;42397;-22
2023/06/29 09:40:03;;;;;;;32.58;22.02;;;;;;;;;;5061677;28;43386;-23
2023/06/29 09:42:36;;;;;;;27.55;20.33;;;;;;;;;;5060057;28;40331;-23
2023/06/29 09:45:07;;;;;;;29.15;21.42;;;;;;;;;;5062868;28;42687;-23
2023/06/29 09:47:35;;;;;;;29.73;21.33;;;;;;;;;;5060246;28;40007;-24
2023/06/29 09:50:07;;;;;;;31.90;20.75;;;;;;;;;;5060700;28;42710;-23
2023/06/29 09:52:36;;;;;;;27.38;20.10;;;;;;;;;;5063398;28;43870;-23
2023/06/29 09:55:04;;;;;;;26.77;20.42;;;;;;;;;;5063564;28;40907;-23
2023/06/29 09:57:34;;;;;;;28.55;20.73;;;;;;;;;;5063699;28;42823;-23
2023/06/29 10:00:04;;;;;;;28.10;20.40;;;;;;;;;;5064324;28;44319;-23
2023/06/29 10:02:33;;;;;;;34.30;21.05;;;;;;;;;;5064159;28;41931;-24
2023/06/29 10:05:01;;;;;;;25.85;19.92;;;;;;;;;;5064459;28;43196;-24
2023/06/29 10:07:29;;;;;;;24.98;18.95;;;;;;;;;;5063124;28;40794;-24
2023/06/29 10:09:57;;;;;;;29.85;20.55;;;;;;;;;;5068149;28;42331;-24
2023/06/29 10:12:26;;;;;;;25.77;19.60;;;;;;;;;;5066856;28;43560;-24
2023/06/29 10:14:56;;;;;;;25.38;18.80;;;;;;;;;;5067205;28;41584;-24
2023/06/29 10:17:24;;;;;;;26.60;18.73;;;;;;;;;;5066858;28;42575;-24
2023/06/29 10:19:53;;;;;;;22.23;17.50;;;;;;;;;;5067596;28;43781;-24
2023/06/29 10:22:21;;;;;;;25.35;17.50;;;;;;;;;;5065870;28;40387;-23
2023/06/29 10:24:50;;;;;;;24.88;19.00;;;;;;;;;;5068174;28;43180;-23
2023/06/29 10:27:18;;;;;;;25.50;18.02;;;;;;;;;;5066249;28;40966;-24
2023/06/29 10:29:46;;;;;;;22.63;17.33;;;;;;;;;;5067269;28;42666;-24
2023/06/29 10:32:30;;;;;;;24.77;18.67;;;;;;;;;;5067377;28;43703;-24
2023/06/29 10:35:05;;;;;;;23.02;17.02;;;;;;;;;;5052597;28;40574;-24
2023/06/29 10:37:33;;;;;;;22.52;17.02;;;;;;;;;;5065554;28;43516;-24
2023/06/29 10:40:04;;;;;;;25.20;17.98;;;;;;;;;;5067250;28;43880;-24
2023/06/29 10:42:49;;;;;;;23.88;17.33;;;;;;;;;;5062698;28;42320;-24
2023/06/29 10:45:35;;;;;;;25.77;17.88;;;;;;;;;;5066296;28;43279;-25
2023/06/29 10:48:08;;;;;;;24.10;17.88;;;;;;;;;;5067299;28;44005;-24
2023/06/29 10:50:36;;;;;;;26.80;18.20;;;;;;;;;;5066129;28;42782;-24
2023/06/29 10:53:05;;;;;;;24.33;18.50;;;;;;;;;;5066740;28;43506;-24
2023/06/29 10:55:43;;;;;;;22.88;17.10;;;;;;;;;;5066965;28;41757;-24
2023/06/29 10:58:21;;;;;;;24.92;17.77;;;;;;;;;;5066438;28;43656;-24
2023/06/29 11:00:49;;;;;;;21.45;17.23;;;;;;;;;;5053979;28;43442;-24
2023/06/29 11:03:18;;;;;;;20.05;16.42;;;;;;;;;;5066835;28;40773;-24
2023/06/29 11:05:49;;;;;;;21.23;17.15;;;;;;;;;;5066272;28;42802;-24
2023/06/29 11:08:18;;;;;;;24.20;16.10;;;;;;;;;;5065698;28;44422;-23
2023/06/29 11:10:46;;;;;;;21.13;15.93;;;;;;;;;;5067023;28;40579;-24
2023/06/29 11:13:14;;;;;;;26.23;17.30;;;;;;;;;;5066416;28;43375;-24
2023/06/29 11:15:42;;;;;;;22.65;15.98;;;;;;;;;;5066879;28;42095;-23
2023/06/29 11:18:10;;;;;;;20.15;15.98;;;;;;;;;;5065077;28;43639;-24
2023/06/29 11:20:39;;;;;;;23.42;16.17;;;;;;;;;;5066189;28;43266;-24
2023/06/29 11:23:08;;;;;;;24.67;16.50;;;;;;;;;;5060016;28;40342;-24
2023/06/29 11:25:36;;;;;;;20.40;16.77;;;;;;;;;;5065222;28;43357;-25
2023/06/29 11:28:04;;;;;;;19.83;15.57;;;;;;;;;;5065907;28;43503;-24
2023/06/29 11:30:32;;;;;;;22.50;17.90;;;;;;;;;;5065741;28;40716;-23
2023/06/29 11:33:01;;;;;;;21.13;16.73;;;;;;;;;;5065540;28;42887;-22
2023/06/29 11:35:31;;;;;;;21.60;16.17;;;;;;;;;;5065885;28;40298;-22
2023/06/29 11:38:01;;;;;;;21.58;16.27;;;;;;;;;;5065832;28;43662;-24
2023/06/29 11:40:29;;;;;;;21.48;16.67;;;;;;;;;;5064600;28;44145;-23
2023/06/29 11:42:57;;;;;;;22.38;16.98;;;;;;;;;;5065746;28;41907;-22
2023/06/29 11:45:25;;;;;;;22.38;16.35;;;;;;;;;;5063667;28;41350;-23
2023/06/29 11:47:56;;;;;;;20.52;15.45;;;;;;;;;;5064728;28;43618;-24
2023/06/29 11:50:24;;;;;;;22.40;16.50;;;;;;;;;;5065039;28;40369;-24
2023/06/29 11:52:52;;;;;;;20.67;15.07;;;;;;;;;;5064939;28;42586;-24
2023/06/29 11:55:22;;;;;;;22.60;16.48;;;;;;;;;;5061195;28;42248;-27
2023/06/29 11:57:52;;;;;;;21.75;15.57;;;;;;;;;;5066708;28;43044;-28
2023/06/29 12:00:28;;;;;;;21.95;16.77;;;;;;;;;;5060118;28;43074;-26
2023/06/29 12:02:57;;;;;;;22.63;16.65;;;;;;;;;;5065908;28;41376;-26
2023/06/29 12:05:29;;;;;;;25.95;17.75;;;;;;;;;;5065583;28;43636;-25
2023/06/29 12:07:59;;;;;;;22.25;16.48;;;;;;;;;;5065702;28;44427;-27
2023/06/29 12:10:28;;;;;;;22.38;17.63;;;;;;;;;;5066090;28;40513;-26
2023/06/29 12:12:58;;;;;;;22.58;17.10;;;;;;;;;;5066382;28;42266;-26
2023/06/29 12:15:27;;;;;;;22.80;15.85;;;;;;;;;;5065172;28;43971;-25
2023/06/29 12:17:59;;;;;;;22.33;16.10;;;;;;;;;;5065695;28;42801;-29
2023/06/29 12:20:28;;;;;;;20.58;15.75;;;;;;;;;;5062316;28;43456;-27
2023/06/29 12:22:57;;;;;;;18.38;14.98;;;;;;;;;;5064386;28;40913;-27
2023/06/29 12:25:25;;;;;;;19.52;16.02;;;;;;;;;;5065303;28;42294;-26
2023/06/29 12:27:54;;;;;;;20.77;15.65;;;;;;;;;;5064584;28;43310;-27
2023/06/29 12:30:22;;;;;;;19.52;15.98;;;;;;;;;;5063243;28;41461;-25
2023/06/29 12:32:50;;;;;;;22.50;16.92;;;;;;;;;;5079602;28;42126;-27
2023/06/29 12:35:18;;;;;;;21.77;16.52;;;;;;;;;;5078571;28;43173;-25
2023/06/29 12:37:46;;;;;;;18.13;14.48;;;;;;;;;;5067107;28;41931;-29
2023/06/29 12:40:15;;;;;;;21.90;15.57;;;;;;;;;;5066043;28;43933;-28
2023/06/29 12:42:43;;;;;;;19.75;16.00;;;;;;;;;;5064889;28;40298;-27
2023/06/29 12:45:13;;;;;;;20.83;15.52;;;;;;;;;;5065062;28;43122;-33
2023/06/29 12:47:41;;;;;;;18.85;14.95;;;;;;;;;;5064390;28;43047;-30
2023/06/29 12:50:12;;;;;;;19.20;15.75;;;;;;;;;;5064785;28;41052;-31
2023/06/29 12:52:41;;;;;;;20.02;15.48;;;;;;;;;;5061646;28;44922;-26
2023/06/29 12:55:09;;;;;;;22.48;16.50;;;;;;;;;;5062061;28;41868;-27
2023/06/29 12:57:39;;;;;;;25.13;16.08;;;;;;;;;;5062713;28;40912;-24
2023/06/29 13:00:07;;;;;;;21.17;15.95;;;;;;;;;;5065195;28;43567;-25
2023/06/29 13:02:37;;;;;;;21.10;14.95;;;;;;;;;;5055265;28;40459;-25
2023/06/29 13:05:05;;;;;;;22.00;15.98;;;;;;;;;;5062713;28;43821;-24
2023/06/29 13:07:34;;;;;;;20.40;16.33;;;;;;;;;;5063617;28;42269;-25
2023/06/29 13:10:03;;;;;;;20.85;16.08;;;;;;;;;;5065129;28;40054;-24
2023/06/29 13:12:31;;;;;;;21.40;16.88;;;;;;;;;;5060315;28;43161;-26
2023/06/29 13:14:59;;;;;;;21.45;16.77;;;;;;;;;;5056678;28;43421;-26
2023/06/29 13:17:27;;;;;;;24.92;18.77;;;;;;;;;;5064360;28;41310;-27
2023/06/29 13:19:56;;;;;;;28.08;19.50;;;;;;;;;;5065358;28;42910;-25
2023/06/29 13:22:24;;;;;;;22.60;18.67;;;;;;;;;;5065285;28;44074;-27
2023/06/29 13:24:52;;;;;;;26.13;19.17;;;;;;;;;;5065295;28;42679;-24
2023/06/29 13:27:20;;;;;;;25.67;20.23;;;;;;;;;;5065060;28;44143;-24
2023/06/29 13:29:48;;;;;;;26.23;19.85;;;;;;;;;;5063809;28;41490;-25
2023/06/29 13:32:16;;;;;;;28.30;21.30;;;;;;;;;;5057451;28;43867;-25
2023/06/29 13:34:44;;;;;;;27.92;21.50;;;;;;;;;;5057352;28;43443;-27
2023/06/29 13:37:14;;;;;;;26.27;20.98;;;;;;;;;;5057480;28;40189;-25
2023/06/29 13:39:43;;;;;;;30.67;21.90;;;;;;;;;;5056542;28;43464;-23
2023/06/29 13:42:15;;;;;;;26.48;20.55;;;;;;;;;;5058647;28;43784;-31
2023/06/29 13:44:43;;;;;;;26.98;21.40;;;;;;;;;;5067254;28;41397;-25
2023/06/29 13:47:20;;;;;;;29.52;23.23;;;;;;;;;;5056808;28;43838;-24
2023/06/29 13:49:48;;;;;;;30.58;22.95;;;;;;;;;;5068650;28;40628;-24
2023/06/29 13:52:17;;;;;;;31.80;24.13;;;;;;;;;;5065840;28;42119;-24
2023/06/29 13:54:45;;;;;;;29.00;22.67;;;;;;;;;;5068005;28;44037;-27
2023/06/29 13:57:13;;;;;;;28.00;21.90;;;;;;;;;;5068677;28;40626;-24
2023/06/29 13:59:41;;;;;;;31.05;24.08;;;;;;;;;;5067096;28;42898;-24
2023/06/29 14:02:09;;;;;;;32.53;25.05;;;;;;;;;;5068471;28;43381;-25
2023/06/29 14:04:38;;;;;;;31.45;23.45;;;;;;;;;;5067847;28;40101;-24
2023/06/29 14:07:06;;;;;;;31.27;24.13;;;;;;;;;;5068314;28;42573;-25
2023/06/29 14:09:35;;;;;;;29.65;24.05;;;;;;;;;;5068272;28;41365;-24
2023/06/29 14:12:04;;;;;;;33.25;25.23;;;;;;;;;;5068144;28;43224;-26
2023/06/29 14:14:33;;;;;;;31.38;24.48;;;;;;;;;;5067448;28;43660;-26
2023/06/29 14:17:01;;;;;;;32.47;24.05;;;;;;;;;;5068208;28;41159;-27
2023/06/29 14:19:29;;;;;;;31.70;24.42;;;;;;;;;;5065769;28;42643;-24
2023/06/29 14:21:57;;;;;;;34.70;24.67;;;;;;;;;;5059356;28;44993;-24
2023/06/29 14:24:25;;;;;;;31.55;24.35;;;;;;;;;;5060148;28;40427;-25
2023/06/29 14:26:55;;;;;;;33.60;24.40;;;;;;;;;;5061787;28;43621;-24